createdAt,value
2017-08-26T00:00:30.984Z,38.40
2017-08-26T00:03:04.408Z,37.90
2017-08-26T00:05:32.044Z,38.60
2017-08-26T00:07:59.495Z,38.90
2017-08-26T00:10:26.919Z,39.50
2017-08-26T00:12:54.340Z,39.40
2017-08-26T00:15:21.772Z,39.50
2017-08-26T00:17:49.220Z,39.20
2017-08-26T00:20:16.778Z,39.70
2017-08-26T00:22:44.241Z,39.80
2017-08-26T00:25:11.682Z,39.50
2017-08-26T00:27:39.101Z,40.10
2017-08-26T00:30:06.537Z,39.80
2017-08-26T00:32:33.969Z,39.80
2017-08-26T00:35:01.515Z,40.00
2017-08-26T00:37:28.950Z,40.40
2017-08-26T00:39:56.428Z,41.10
2017-08-26T00:42:23.853Z,41.00
2017-08-26T00:44:51.337Z,41.00
2017-08-26T00:47:18.787Z,41.00
2017-08-26T00:49:46.242Z,41.00
2017-08-26T00:52:13.745Z,40.60
2017-08-26T00:54:41.178Z,41.00
2017-08-26T00:57:08.796Z,40.90
2017-08-26T00:59:36.381Z,40.40
2017-08-26T01:02:03.817Z,40.90
2017-08-26T01:04:31.295Z,40.90
2017-08-26T01:07:04.272Z,40.90
2017-08-26T01:09:31.744Z,40.50
2017-08-26T01:11:59.193Z,39.90
2017-08-26T01:14:26.825Z,40.80
2017-08-26T01:16:54.408Z,40.70
2017-08-26T01:19:21.868Z,40.70
2017-08-26T01:21:49.306Z,41.00
2017-08-26T01:24:16.730Z,41.90
2017-08-26T01:26:44.236Z,41.40
2017-08-26T01:29:11.693Z,41.60
2017-08-26T01:31:39.471Z,42.30
2017-08-26T01:34:07.097Z,42.30
2017-08-26T01:36:35.388Z,42.30
2017-08-26T01:39:02.972Z,42.50
2017-08-26T01:41:30.512Z,42.60
2017-08-26T01:43:58.273Z,42.30
2017-08-26T01:46:25.713Z,42.00
2017-08-26T01:48:53.185Z,42.00
2017-08-26T01:51:20.608Z,42.30
2017-08-26T01:53:48.101Z,41.90
2017-08-26T01:56:15.537Z,41.80
2017-08-26T01:58:42.956Z,41.90
2017-08-26T02:01:10.467Z,41.60
2017-08-26T02:03:37.925Z,41.50
2017-08-26T02:06:05.578Z,41.70
2017-08-26T02:08:33.146Z,41.40
2017-08-26T02:11:00.797Z,42.10
2017-08-26T02:13:28.271Z,41.40
2017-08-26T02:15:55.710Z,41.50
2017-08-26T02:18:23.181Z,41.30
2017-08-26T02:20:50.743Z,42.80
2017-08-26T02:23:18.188Z,44.60
2017-08-26T02:25:45.696Z,44.60
2017-08-26T02:28:13.298Z,43.80
2017-08-26T02:30:40.763Z,42.90
2017-08-26T02:33:08.326Z,42.40
2017-08-26T02:35:37.014Z,42.10
2017-08-26T02:38:04.452Z,42.50
2017-08-26T02:40:31.925Z,43.30
2017-08-26T02:42:59.378Z,42.50
2017-08-26T02:45:26.838Z,42.20
2017-08-26T02:47:54.274Z,41.70
2017-08-26T02:50:21.741Z,42.60
2017-08-26T02:52:49.169Z,41.80
2017-08-26T02:55:16.657Z,42.10
2017-08-26T02:57:44.085Z,42.10
2017-08-26T03:00:11.509Z,41.80
2017-08-26T03:02:38.946Z,41.90
2017-08-26T03:05:06.379Z,41.80
2017-08-26T03:07:33.937Z,42.60
2017-08-26T03:10:01.388Z,41.90
2017-08-26T03:12:28.816Z,41.90
2017-08-26T03:14:56.313Z,42.40
2017-08-26T03:17:23.764Z,42.50
2017-08-26T03:19:51.189Z,43.00
2017-08-26T03:22:18.630Z,43.20
2017-08-26T03:24:46.132Z,42.80
2017-08-26T03:27:13.578Z,42.50
2017-08-26T03:29:41.041Z,42.50
2017-08-26T03:32:08.465Z,42.30
2017-08-26T03:34:35.953Z,43.20
2017-08-26T03:37:03.412Z,43.10
2017-08-26T03:39:30.838Z,42.90
2017-08-26T03:41:58.322Z,43.00
2017-08-26T03:44:25.753Z,43.00
2017-08-26T03:46:53.177Z,43.00
2017-08-26T03:49:20.697Z,43.00
2017-08-26T03:51:48.324Z,42.80
2017-08-26T03:54:16.071Z,43.70
2017-08-26T03:56:43.684Z,43.30
2017-08-26T03:59:11.137Z,43.40
2017-08-26T04:01:38.549Z,43.60
2017-08-26T04:04:06.049Z,43.90
2017-08-26T04:06:33.478Z,43.90
2017-08-26T04:09:00.908Z,43.90
2017-08-26T04:11:28.333Z,43.80
2017-08-26T04:13:55.775Z,43.90
2017-08-26T04:16:23.257Z,43.50
2017-08-26T04:18:50.794Z,43.60
2017-08-26T04:21:18.242Z,43.60
2017-08-26T04:23:45.705Z,43.50
2017-08-26T04:26:13.468Z,43.80
2017-08-26T04:28:41.220Z,43.80
2017-08-26T04:31:08.672Z,43.20
2017-08-26T04:33:36.145Z,43.80
2017-08-26T04:36:03.621Z,43.80
2017-08-26T04:38:31.169Z,43.80
2017-08-26T04:40:58.818Z,43.80
2017-08-26T04:43:26.285Z,44.90
2017-08-26T04:45:53.899Z,45.30
2017-08-26T04:48:21.402Z,45.40
2017-08-26T04:50:48.947Z,46.40
2017-08-26T04:53:16.572Z,48.00
2017-08-26T04:55:44.106Z,46.90
2017-08-26T04:58:11.523Z,46.10
2017-08-26T05:00:38.994Z,47.60
2017-08-26T05:03:06.533Z,47.00
2017-08-26T05:05:34.180Z,47.30
2017-08-26T05:08:01.761Z,47.20
2017-08-26T05:10:29.213Z,47.40
2017-08-26T05:12:56.642Z,45.60
2017-08-26T05:15:24.128Z,46.40
2017-08-26T05:17:51.757Z,49.50
2017-08-26T05:20:19.217Z,48.90
2017-08-26T05:22:46.797Z,47.20
2017-08-26T05:25:14.560Z,48.10
2017-08-26T05:27:42.308Z,50.60
2017-08-26T05:30:09.740Z,50.50
2017-08-26T05:32:37.174Z,51.10
2017-08-26T05:35:04.605Z,50.50
2017-08-26T05:37:32.144Z,50.00
2017-08-26T05:39:59.601Z,50.60
2017-08-26T05:42:27.066Z,51.60
2017-08-26T05:44:54.521Z,52.60
2017-08-26T05:47:22.156Z,51.30
2017-08-26T05:49:49.639Z,51.60
2017-08-26T05:52:17.113Z,52.30
2017-08-26T05:54:44.624Z,52.50
2017-08-26T05:57:12.059Z,51.90
2017-08-26T05:59:39.485Z,50.90
2017-08-26T06:02:06.926Z,51.70
2017-08-26T06:04:34.485Z,50.80
2017-08-26T06:07:02.128Z,50.30
2017-08-26T06:09:29.693Z,49.50
2017-08-26T06:11:57.142Z,51.50
2017-08-26T06:14:24.572Z,51.50
2017-08-26T06:16:52.065Z,50.70
2017-08-26T06:19:19.495Z,51.80
2017-08-26T06:21:47.108Z,52.50
2017-08-26T06:24:14.741Z,52.10
2017-08-26T06:29:16.412Z,50.80
2017-08-26T06:31:44.069Z,49.60
2017-08-26T06:34:11.504Z,49.40
2017-08-26T06:36:39.009Z,49.90
2017-08-26T06:39:06.453Z,53.70
2017-08-26T06:41:34.007Z,53.50
2017-08-26T06:44:01.581Z,52.30
2017-08-26T06:46:29.216Z,51.80
2017-08-26T06:48:56.645Z,50.70
2017-08-26T06:51:24.140Z,51.10
2017-08-26T06:53:51.897Z,51.50
2017-08-26T06:56:19.356Z,50.70
2017-08-26T06:58:47.112Z,50.90
2017-08-26T07:01:14.566Z,50.60
2017-08-26T07:03:42.005Z,51.10
2017-08-26T07:06:09.496Z,49.70
2017-08-26T07:08:37.115Z,49.70
2017-08-26T07:11:04.621Z,50.40
2017-08-26T07:13:32.078Z,49.30
2017-08-26T07:15:59.504Z,49.10
2017-08-26T07:18:27.076Z,50.80
2017-08-26T07:20:54.517Z,49.90
2017-08-26T07:23:21.980Z,50.20
2017-08-26T07:25:50.362Z,49.70
2017-08-26T07:28:17.993Z,49.80
2017-08-26T07:30:45.490Z,49.80
2017-08-26T07:33:13.037Z,48.50
2017-08-26T07:35:40.497Z,46.70
2017-08-26T07:38:08.260Z,46.70
2017-08-26T07:40:35.720Z,46.30
2017-08-26T07:43:03.176Z,45.90
2017-08-26T07:45:30.605Z,46.10
2017-08-26T07:47:58.043Z,50.50
2017-08-26T07:50:25.537Z,47.60
2017-08-26T07:52:53.176Z,46.30
2017-08-26T07:55:20.692Z,47.40
2017-08-26T07:57:48.220Z,47.80
2017-08-26T08:00:15.669Z,46.50
2017-08-26T08:02:43.434Z,47.40
2017-08-26T08:05:10.880Z,47.60
2017-08-26T08:07:38.484Z,46.30
2017-08-26T08:10:06.109Z,47.30
2017-08-26T08:12:33.572Z,46.80
2017-08-26T08:15:01.198Z,47.00
2017-08-26T08:17:28.784Z,46.90
2017-08-26T08:19:56.416Z,47.10
2017-08-26T08:22:23.928Z,46.50
2017-08-26T08:24:51.365Z,47.30
2017-08-26T08:27:18.912Z,46.60
2017-08-26T08:29:46.341Z,46.10
2017-08-26T08:32:13.829Z,44.70
2017-08-26T08:34:41.257Z,45.90
2017-08-26T08:37:08.695Z,45.90
2017-08-26T08:39:36.202Z,46.30
2017-08-26T08:42:03.840Z,44.30
2017-08-26T08:44:31.769Z,46.00
2017-08-26T08:46:59.484Z,45.10
2017-08-26T08:49:26.925Z,44.30
2017-08-26T08:51:54.405Z,43.70
2017-08-26T08:54:21.861Z,44.00
2017-08-26T08:56:49.289Z,43.20
2017-08-26T08:59:16.774Z,41.80
2017-08-26T09:01:44.225Z,44.70
2017-08-26T09:04:11.668Z,42.90
2017-08-26T09:06:39.142Z,44.10
2017-08-26T09:09:06.581Z,44.10
2017-08-26T09:11:34.058Z,43.00
2017-08-26T09:14:01.698Z,43.60
2017-08-26T09:16:29.148Z,42.60
2017-08-26T09:18:56.600Z,42.50
2017-08-26T09:21:24.053Z,41.90
2017-08-26T09:23:51.664Z,42.00
2017-08-26T09:26:19.092Z,41.80
2017-08-26T09:28:46.533Z,42.10
2017-08-26T09:31:13.968Z,40.90
2017-08-26T09:33:41.461Z,41.40
2017-08-26T09:36:08.896Z,42.00
2017-08-26T09:38:36.381Z,41.20
2017-08-26T09:41:04.013Z,37.60
2017-08-26T09:43:31.610Z,37.90
2017-08-26T09:45:59.045Z,37.10
2017-08-26T09:48:26.477Z,37.70
2017-08-26T09:50:53.929Z,39.20
2017-08-26T09:53:21.393Z,38.70
2017-08-26T09:55:48.982Z,40.30
2017-08-26T09:58:16.526Z,39.80
2017-08-26T10:00:44.014Z,36.30
2017-08-26T10:03:11.552Z,36.40
2017-08-26T10:05:39.001Z,34.90
2017-08-26T10:08:06.439Z,35.00
2017-08-26T10:10:33.920Z,37.00
2017-08-26T10:13:01.338Z,35.50
2017-08-26T10:15:28.794Z,32.90
2017-08-26T10:17:56.289Z,33.90
2017-08-26T10:20:23.721Z,31.90
2017-08-26T10:22:51.196Z,30.50
2017-08-26T10:25:18.660Z,29.40
2017-08-26T10:27:46.112Z,29.80
2017-08-26T10:30:13.550Z,28.50
2017-08-26T10:32:40.977Z,28.50
2017-08-26T10:35:08.400Z,29.60
2017-08-26T10:37:35.837Z,28.00
2017-08-26T10:40:03.263Z,27.70
2017-08-26T10:42:30.760Z,27.20
2017-08-26T10:44:58.197Z,30.20
2017-08-26T10:47:25.636Z,26.70
2017-08-26T10:49:53.133Z,26.10
2017-08-26T10:52:20.566Z,25.50
2017-08-26T10:54:48.135Z,26.60
2017-08-26T10:57:15.916Z,25.60
2017-08-26T10:59:43.533Z,24.90
2017-08-26T11:02:11.032Z,26.40
2017-08-26T11:04:38.462Z,22.70
2017-08-26T11:07:05.936Z,23.10
2017-08-26T11:09:33.388Z,22.90
2017-08-26T11:12:00.943Z,22.60
2017-08-26T11:14:28.364Z,22.40
2017-08-26T11:16:55.860Z,22.40
2017-08-26T11:19:23.582Z,22.20
2017-08-26T11:21:51.581Z,21.00
2017-08-26T11:24:19.825Z,20.70
2017-08-26T11:26:47.455Z,21.50
2017-08-26T11:29:14.993Z,20.70
2017-08-26T11:31:42.608Z,20.90
2017-08-26T11:34:11.707Z,20.80
2017-08-26T11:36:39.190Z,20.90
2017-08-26T11:39:06.641Z,18.50
2017-08-26T11:41:34.068Z,19.10
2017-08-26T11:44:01.561Z,19.20
2017-08-26T11:46:29.002Z,18.90
2017-08-26T11:48:56.431Z,18.40
2017-08-26T11:51:23.928Z,18.60
2017-08-26T11:53:51.371Z,18.10
2017-08-26T11:56:18.808Z,17.70
2017-08-26T11:58:46.237Z,18.40
2017-08-26T12:01:13.757Z,16.40
2017-08-26T12:03:41.219Z,15.70
2017-08-26T12:06:08.660Z,15.20
2017-08-26T12:08:36.084Z,15.80
2017-08-26T12:11:03.578Z,13.50
2017-08-26T12:13:31.345Z,12.50
2017-08-26T12:15:58.876Z,12.00
2017-08-26T12:18:26.469Z,10.70
2017-08-26T12:20:54.029Z,9.80
2017-08-26T12:23:21.488Z,10.40
2017-08-26T12:25:48.941Z,11.10
2017-08-26T12:28:16.383Z,10.50
2017-08-26T12:30:43.819Z,10.20
2017-08-26T12:33:11.295Z,9.80
2017-08-26T12:35:38.729Z,8.60
2017-08-26T12:38:06.148Z,9.40
2017-08-26T12:40:33.698Z,9.40
2017-08-26T12:43:01.288Z,9.80
2017-08-26T12:45:28.880Z,8.80
2017-08-26T12:47:56.338Z,9.30
2017-08-26T12:50:23.797Z,9.70
2017-08-26T12:52:51.220Z,9.40
2017-08-26T12:55:18.648Z,9.60
2017-08-26T12:57:46.073Z,9.40
2017-08-26T13:00:13.621Z,8.10
2017-08-26T13:02:41.041Z,7.70
2017-08-26T13:05:08.465Z,6.80
2017-08-26T13:07:36.001Z,7.20
2017-08-26T13:10:03.444Z,6.20
2017-08-26T13:12:30.913Z,6.30
2017-08-26T13:14:58.660Z,6.70
2017-08-26T13:17:26.127Z,6.30
2017-08-26T13:19:53.602Z,6.70
2017-08-26T13:22:21.137Z,5.60
2017-08-26T14:19:31.260Z,2.60
2017-08-26T14:21:58.700Z,1.90
2017-08-26T14:27:32.000Z,3.70
2017-08-26T14:29:59.446Z,3.50
2017-08-26T14:32:26.852Z,3.20
2017-08-26T14:34:54.276Z,5.40
2017-08-26T14:37:21.692Z,4.00
2017-08-26T14:39:49.292Z,2.00
2017-08-26T14:42:17.672Z,3.30
2017-08-26T14:44:45.120Z,4.20
2017-08-26T14:47:12.558Z,3.40
2017-08-26T14:49:40.041Z,5.50
2017-08-26T14:52:07.659Z,4.90
2017-08-26T14:54:35.144Z,4.20
2017-08-26T14:57:03.622Z,5.00
2017-08-26T14:59:31.033Z,4.40
2017-08-26T15:01:58.456Z,4.90
2017-08-26T15:04:25.868Z,4.30
2017-08-26T15:06:53.453Z,4.10
2017-08-26T15:09:20.921Z,3.90
2017-08-26T15:11:48.565Z,4.10
2017-08-26T15:14:15.991Z,6.10
2017-08-26T15:16:43.495Z,4.10
2017-08-26T15:19:11.249Z,5.00
2017-08-26T15:21:38.801Z,4.90
2017-08-26T15:24:06.221Z,5.60
2017-08-26T15:26:33.644Z,5.10
2017-08-26T15:29:01.068Z,6.40
2017-08-26T15:31:28.517Z,5.00
2017-08-26T15:33:56.099Z,4.00
2017-08-26T15:36:23.729Z,4.40
2017-08-26T15:38:51.218Z,4.30
2017-08-26T15:41:18.765Z,4.00
2017-08-26T15:43:46.220Z,3.30
2017-08-26T15:46:13.677Z,3.30
2017-08-26T15:48:41.132Z,6.40
2017-08-26T15:51:08.771Z,5.50
2017-08-26T15:53:36.353Z,4.30
2017-08-26T15:56:03.984Z,3.10
2017-08-26T15:58:31.561Z,3.10
2017-08-26T16:00:59.033Z,4.60
2017-08-26T16:03:26.761Z,5.80
2017-08-26T16:05:54.195Z,5.00
2017-08-26T16:08:21.712Z,4.50
2017-08-26T16:10:49.160Z,3.60
2017-08-26T16:13:16.616Z,7.10
2017-08-26T16:15:44.080Z,4.50
2017-08-26T16:18:11.523Z,4.00
2017-08-26T16:20:38.944Z,4.10
2017-08-26T16:23:06.376Z,4.40
2017-08-26T16:25:33.804Z,5.10
2017-08-26T16:28:01.355Z,4.60
2017-08-26T16:30:28.813Z,5.50
2017-08-26T16:32:57.104Z,6.60
2017-08-26T16:35:24.962Z,6.50
2017-08-26T16:37:52.383Z,6.60
2017-08-26T16:40:19.811Z,6.60
2017-08-26T16:42:47.242Z,6.10
2017-08-26T16:45:14.665Z,6.40
2017-08-26T16:47:42.227Z,5.40
2017-08-26T16:50:09.688Z,6.50
2017-08-26T16:52:37.116Z,6.60
2017-08-26T16:55:04.557Z,6.90
2017-08-26T16:57:31.978Z,6.30
2017-08-26T16:59:59.522Z,7.00
2017-08-26T17:02:26.952Z,6.30
2017-08-26T17:04:54.426Z,6.80
2017-08-26T17:07:21.864Z,7.80
2017-08-26T17:09:49.287Z,7.70
2017-08-26T17:12:16.843Z,8.00
2017-08-26T17:14:44.273Z,8.00
2017-08-26T17:17:12.012Z,8.50
2017-08-26T17:19:39.452Z,8.30
2017-08-26T17:22:06.922Z,8.30
2017-08-26T17:24:34.356Z,8.40
2017-08-26T17:27:01.869Z,8.20
2017-08-26T17:29:29.477Z,8.50
2017-08-26T17:31:56.956Z,9.40
2017-08-26T17:34:24.433Z,9.40
2017-08-26T17:36:51.876Z,9.50
2017-08-26T17:39:19.308Z,9.80
2017-08-26T17:41:46.880Z,10.30
2017-08-26T17:44:14.532Z,10.60
2017-08-26T17:46:42.334Z,10.80
2017-08-26T17:49:09.783Z,11.60
2017-08-26T17:51:37.341Z,11.90
2017-08-26T17:54:04.788Z,11.80
2017-08-26T17:56:32.543Z,12.10
2017-08-26T17:59:00.190Z,12.20
2017-08-26T18:01:27.668Z,12.20
2017-08-26T18:03:55.238Z,12.40
2017-08-26T18:06:22.860Z,12.90
2017-08-26T18:08:50.299Z,13.40
2017-08-26T18:11:17.893Z,13.30
2017-08-26T18:13:45.332Z,14.00
2017-08-26T18:16:12.780Z,13.80
2017-08-26T18:18:40.217Z,14.40
2017-08-26T18:21:07.764Z,14.70
2017-08-26T18:23:35.395Z,15.00
2017-08-26T18:26:02.857Z,15.40
2017-08-26T18:28:30.398Z,15.70
2017-08-26T18:30:58.049Z,15.90
2017-08-26T18:33:25.492Z,16.20
2017-08-26T18:35:53.073Z,16.20
2017-08-26T18:38:20.496Z,16.50
2017-08-26T18:40:47.981Z,16.80
2017-08-26T18:43:15.412Z,16.80
2017-08-26T18:45:42.844Z,17.30
2017-08-26T18:48:10.360Z,17.10
2017-08-26T18:50:37.993Z,17.20
2017-08-26T18:53:05.423Z,17.40
2017-08-26T18:55:33.028Z,17.10
2017-08-26T18:58:00.496Z,17.80
2017-08-26T19:00:28.244Z,17.60
2017-08-26T19:02:55.882Z,17.50
2017-08-26T19:05:23.559Z,17.70
2017-08-26T19:07:51.134Z,17.80
2017-08-26T19:10:18.680Z,17.90
2017-08-26T19:12:46.136Z,18.00
2017-08-26T19:15:13.606Z,18.20
2017-08-26T19:17:41.052Z,18.70
2017-08-26T19:20:08.493Z,18.50
2017-08-26T19:22:35.929Z,18.50
2017-08-26T19:25:03.420Z,18.90
2017-08-26T19:27:30.887Z,19.10
2017-08-26T19:29:58.336Z,18.90
2017-08-26T19:32:25.801Z,19.20
2017-08-26T19:34:53.563Z,19.20
2017-08-26T19:37:21.009Z,19.00
2017-08-26T19:39:48.444Z,18.70
2017-08-26T19:42:15.889Z,19.10
2017-08-26T19:44:43.345Z,20.00
2017-08-26T19:47:10.784Z,19.70
2017-08-26T19:49:38.217Z,19.40
2017-08-26T19:52:05.656Z,19.70
2017-08-26T19:54:33.200Z,19.90
2017-08-26T19:57:00.957Z,19.70
2017-08-26T19:59:28.431Z,20.00
2017-08-26T20:01:55.893Z,20.60
2017-08-26T20:04:23.644Z,20.70
2017-08-26T20:06:51.108Z,20.70
2017-08-26T20:09:18.741Z,21.00
2017-08-26T20:11:46.319Z,21.40
2017-08-26T20:14:13.758Z,21.50
2017-08-26T20:16:41.196Z,21.40
2017-08-26T20:19:08.632Z,21.80
2017-08-26T20:21:36.150Z,21.70
2017-08-26T20:24:03.603Z,21.90
2017-08-26T20:26:31.065Z,21.90
2017-08-26T20:28:58.517Z,23.10
2017-08-26T20:31:25.972Z,23.40
2017-08-26T20:33:53.600Z,23.40
2017-08-26T20:36:21.126Z,23.60
2017-08-26T20:38:48.573Z,23.50
2017-08-26T20:41:16.005Z,24.00
2017-08-26T20:43:43.577Z,24.50
2017-08-26T20:46:11.322Z,24.90
2017-08-26T20:48:38.983Z,25.10
2017-08-26T20:51:06.433Z,25.20
2017-08-26T20:53:33.905Z,25.50
2017-08-26T20:56:01.362Z,25.70
2017-08-26T20:58:28.805Z,25.60
2017-08-26T21:00:56.271Z,25.80
2017-08-26T21:03:23.741Z,26.00
2017-08-26T21:05:51.191Z,26.00
2017-08-26T21:08:18.736Z,26.00
2017-08-26T21:10:46.164Z,26.50
2017-08-26T21:13:13.610Z,26.50
2017-08-26T21:15:41.115Z,26.40
2017-08-26T21:18:08.889Z,26.40
2017-08-26T21:20:36.504Z,26.30
2017-08-26T21:23:04.089Z,26.30
2017-08-26T21:25:31.523Z,26.30
2017-08-26T21:27:58.993Z,26.60
2017-08-26T21:30:26.420Z,26.90
2017-08-26T21:32:53.858Z,26.50
2017-08-26T21:35:21.384Z,26.90
2017-08-26T21:37:49.020Z,26.40
2017-08-26T21:40:16.488Z,26.80
2017-08-26T21:42:43.917Z,26.30
2017-08-26T21:45:11.504Z,26.70
2017-08-26T21:47:38.974Z,26.40
2017-08-26T21:50:06.716Z,26.80
2017-08-26T21:52:34.149Z,27.20
2017-08-26T21:55:01.633Z,27.80
2017-08-26T21:57:29.086Z,27.90
2017-08-26T21:59:56.540Z,27.80
2017-08-26T22:02:23.976Z,28.00
2017-08-26T22:04:51.416Z,28.30
2017-08-26T22:07:18.848Z,28.50
2017-08-26T22:09:46.362Z,28.90
2017-08-26T22:12:13.796Z,29.90
2017-08-26T22:14:41.233Z,30.20
2017-08-26T22:17:08.737Z,30.60
2017-08-26T22:19:36.498Z,30.90
2017-08-26T22:22:03.928Z,30.90
2017-08-26T22:24:31.363Z,30.70
2017-08-26T22:26:58.868Z,31.10
2017-08-26T22:29:26.511Z,30.80
2017-08-26T22:31:54.024Z,30.90
2017-08-26T22:34:21.465Z,30.60
2017-08-26T22:36:49.000Z,32.80
2017-08-26T22:39:16.436Z,32.20
2017-08-26T22:41:43.869Z,32.20
2017-08-26T22:44:11.331Z,33.40
2017-08-26T22:46:38.749Z,33.40
2017-08-26T22:49:06.200Z,32.60
2017-08-26T22:51:33.632Z,31.80
2017-08-26T22:54:01.196Z,31.60
2017-08-26T22:56:28.635Z,32.00
2017-08-26T22:58:56.072Z,32.20
2017-08-26T23:01:23.560Z,31.70
2017-08-26T23:03:50.996Z,32.20
2017-08-26T23:06:18.476Z,32.70
2017-08-26T23:08:45.905Z,32.30
2017-08-26T23:11:13.394Z,32.30
2017-08-26T23:13:41.028Z,32.50
2017-08-26T23:16:08.610Z,32.00
2017-08-26T23:18:36.246Z,31.70
2017-08-26T23:21:03.742Z,31.80
2017-08-26T23:23:31.192Z,32.00
2017-08-26T23:25:58.748Z,32.10
2017-08-26T23:28:26.177Z,32.10
2017-08-26T23:30:53.659Z,32.10
2017-08-26T23:33:21.088Z,33.10
2017-08-26T23:35:48.573Z,32.90
2017-08-26T23:38:16.208Z,33.00
2017-08-26T23:40:43.780Z,33.00
2017-08-26T23:43:11.249Z,33.00
2017-08-26T23:45:38.884Z,33.00
2017-08-26T23:48:06.339Z,33.00
2017-08-26T23:50:33.823Z,32.90
2017-08-26T23:53:01.371Z,32.60
2017-08-26T23:55:28.836Z,32.80
2017-08-26T23:57:56.288Z,33.90
